createdAt,value
2016-10-20T00:00:22.635Z,924.54
2016-10-20T00:01:33.350Z,924.58
2016-10-20T00:02:44.089Z,924.58
2016-10-20T00:03:54.863Z,924.6
2016-10-20T00:05:05.609Z,924.56
2016-10-20T00:06:16.323Z,924.55
2016-10-20T00:07:27.092Z,924.54
2016-10-20T00:08:37.810Z,924.55
2016-10-20T00:09:48.541Z,924.54
2016-10-20T00:10:59.268Z,924.58
2016-10-20T00:12:10.042Z,924.57
2016-10-20T00:13:20.760Z,924.62
2016-10-20T00:14:31.522Z,924.57
2016-10-20T00:15:42.244Z,924.6
2016-10-20T00:16:52.961Z,924.66
2016-10-20T00:18:03.708Z,924.68
2016-10-20T00:19:14.446Z,924.65
2016-10-20T00:20:25.175Z,924.61
2016-10-20T00:21:35.925Z,924.73
2016-10-20T00:22:46.687Z,924.62
2016-10-20T00:23:57.417Z,924.74
2016-10-20T00:25:08.154Z,924.8
2016-10-20T00:26:18.892Z,924.83
2016-10-20T00:27:29.634Z,924.87
2016-10-20T00:28:40.347Z,924.86
2016-10-20T00:29:51.092Z,924.93
2016-10-20T00:31:01.815Z,924.96
2016-10-20T00:32:12.540Z,924.98
2016-10-20T00:33:23.257Z,925.01
2016-10-20T00:34:34.007Z,925.05
2016-10-20T00:35:44.727Z,925.06
2016-10-20T00:36:55.432Z,925.2
2016-10-20T00:38:06.695Z,925.2
2016-10-20T00:39:17.454Z,925.13
2016-10-20T00:40:28.195Z,925.19
2016-10-20T00:41:38.935Z,924.94
2016-10-20T00:42:49.676Z,925.18
2016-10-20T00:44:00.931Z,925.06
2016-10-20T00:45:11.683Z,925.1
2016-10-20T00:46:22.425Z,925.14
2016-10-20T00:47:33.183Z,925.2
2016-10-20T00:48:43.936Z,925.23
2016-10-20T00:49:54.732Z,925.22
2016-10-20T00:51:05.428Z,925.22
2016-10-20T00:52:16.145Z,925.24
2016-10-20T00:53:26.865Z,925.26
2016-10-20T00:54:37.555Z,925.25
2016-10-20T00:55:48.238Z,925.26
2016-10-20T00:56:58.950Z,925.21
2016-10-20T00:58:09.634Z,925.27
2016-10-20T00:59:20.317Z,925.29
2016-10-20T01:00:31.029Z,925.28
2016-10-20T01:01:41.714Z,925.27
2016-10-20T01:02:52.424Z,925.34
2016-10-20T01:04:03.126Z,925.35
2016-10-20T01:05:13.822Z,925.43
2016-10-20T01:06:24.558Z,925.4
2016-10-20T01:07:35.279Z,925.47
2016-10-20T01:08:45.976Z,925.47
2016-10-20T01:09:56.651Z,925.43
2016-10-20T01:11:07.430Z,925.44
2016-10-20T01:12:18.139Z,925.41
2016-10-20T01:13:28.814Z,925.43
2016-10-20T01:14:39.508Z,925.42
2016-10-20T01:15:50.247Z,925.45
2016-10-20T01:17:00.922Z,925.46
2016-10-20T01:18:11.621Z,925.49
2016-10-20T01:19:22.296Z,925.49
2016-10-20T01:20:33.047Z,925.49
2016-10-20T01:21:43.765Z,925.53
2016-10-20T01:22:54.458Z,925.54
2016-10-20T01:24:05.215Z,925.44
2016-10-20T01:25:16.430Z,925.43
2016-10-20T01:26:27.089Z,925.42
2016-10-20T01:27:37.834Z,925.39
2016-10-20T01:28:48.504Z,925.47
2016-10-20T01:29:59.195Z,925.47
2016-10-20T01:31:09.905Z,925.49
2016-10-20T01:32:20.604Z,925.5
2016-10-20T01:33:31.298Z,925.56
2016-10-20T01:34:41.974Z,925.54
2016-10-20T01:35:52.654Z,925.56
2016-10-20T01:37:03.353Z,925.53
2016-10-20T01:38:14.059Z,925.54
2016-10-20T01:39:24.781Z,925.46
2016-10-20T01:40:35.511Z,925.4
2016-10-20T01:41:46.168Z,925.41
2016-10-20T01:42:56.872Z,925.34
2016-10-20T01:44:07.580Z,925.4
2016-10-20T01:45:18.281Z,925.4
2016-10-20T01:46:29.005Z,925.44
2016-10-20T01:47:39.701Z,925.39
2016-10-20T01:48:50.409Z,925.35
2016-10-20T01:50:01.075Z,925.37
2016-10-20T01:51:11.852Z,925.32
2016-10-20T01:52:22.572Z,925.39
2016-10-20T01:53:33.349Z,925.33
2016-10-20T01:54:44.069Z,925.35
2016-10-20T01:55:54.799Z,925.43
2016-10-20T01:57:05.504Z,925.42
2016-10-20T01:58:16.208Z,925.4
2016-10-20T01:59:26.941Z,925.46
2016-10-20T02:00:37.633Z,925.42
2016-10-20T02:01:48.331Z,925.41
2016-10-20T02:02:58.995Z,925.4
2016-10-20T02:04:09.686Z,925.41
2016-10-20T02:05:20.373Z,925.46
2016-10-20T02:06:31.050Z,925.47
2016-10-20T02:07:41.734Z,925.48
2016-10-20T02:08:52.424Z,925.46
2016-10-20T02:10:03.134Z,925.49
2016-10-20T02:11:13.835Z,925.41
2016-10-20T02:12:24.554Z,925.51
2016-10-20T02:13:35.258Z,925.52
2016-10-20T02:14:46.520Z,925.63
2016-10-20T02:15:57.224Z,925.64
2016-10-20T02:17:07.916Z,925.66
2016-10-20T02:18:18.741Z,925.63
2016-10-20T02:19:29.425Z,925.65
2016-10-20T02:20:40.144Z,925.64
2016-10-20T02:21:50.817Z,925.72
2016-10-20T02:23:01.525Z,925.74
2016-10-20T02:24:12.210Z,925.65
2016-10-20T02:25:23.453Z,925.71
2016-10-20T02:26:34.128Z,925.77
2016-10-20T02:27:45.320Z,925.76
2016-10-20T02:28:56.015Z,925.64
2016-10-20T02:30:06.725Z,925.72
2016-10-20T02:31:17.429Z,925.69
2016-10-20T02:32:28.150Z,925.64
2016-10-20T02:33:38.888Z,925.67
2016-10-20T02:34:49.572Z,925.63
2016-10-20T02:36:00.245Z,925.59
2016-10-20T02:37:10.961Z,925.6
2016-10-20T02:38:21.644Z,925.62
2016-10-20T02:39:32.349Z,925.62
2016-10-20T02:40:43.056Z,925.52
2016-10-20T02:41:53.755Z,925.58
2016-10-20T02:43:06.006Z,925.6
2016-10-20T02:44:16.703Z,925.53
2016-10-20T02:45:28.418Z,925.56
2016-10-20T02:46:39.119Z,925.58
2016-10-20T02:47:49.848Z,925.54
2016-10-20T02:49:00.608Z,925.62
2016-10-20T02:50:11.334Z,925.52
2016-10-20T02:51:22.013Z,925.63
2016-10-20T02:52:32.693Z,925.54
2016-10-20T02:53:43.420Z,925.68
2016-10-20T02:54:54.138Z,925.66
2016-10-20T02:56:04.843Z,925.68
2016-10-20T02:57:15.536Z,925.66
2016-10-20T02:58:26.215Z,925.68
2016-10-20T02:59:36.899Z,925.61
2016-10-20T03:00:48.084Z,925.75
2016-10-20T03:01:58.818Z,925.71
2016-10-20T03:03:09.497Z,925.72
2016-10-20T03:04:20.346Z,925.74
2016-10-20T03:05:31.033Z,925.72
2016-10-20T03:06:41.700Z,925.77
2016-10-20T03:07:52.400Z,925.7
2016-10-20T03:09:03.127Z,925.68
2016-10-20T03:10:13.784Z,925.64
2016-10-20T03:11:24.468Z,925.6
2016-10-20T03:12:35.177Z,925.54
2016-10-20T03:13:45.890Z,925.55
2016-10-20T03:14:56.573Z,925.56
2016-10-20T03:16:08.349Z,925.49
2016-10-20T03:17:19.050Z,925.55
2016-10-20T03:18:29.781Z,925.54
2016-10-20T03:19:40.448Z,925.34
2016-10-20T03:20:51.671Z,925.52
2016-10-20T03:22:02.374Z,925.5
2016-10-20T03:23:13.179Z,925.46
2016-10-20T03:24:23.895Z,925.52
2016-10-20T03:25:34.602Z,925.5
2016-10-20T03:26:45.312Z,925.47
2016-10-20T03:27:56.043Z,925.44
2016-10-20T03:29:06.756Z,925.45
2016-10-20T03:30:17.462Z,925.46
2016-10-20T03:31:28.200Z,925.49
2016-10-20T03:32:38.906Z,925.38
2016-10-20T03:33:49.632Z,925.38
2016-10-20T03:35:00.351Z,925.28
2016-10-20T03:36:11.587Z,925.25
2016-10-20T03:37:22.327Z,925.26
2016-10-20T03:38:33.065Z,925.22
2016-10-20T03:39:43.828Z,925.28
2016-10-20T03:40:54.533Z,925.22
2016-10-20T03:42:05.269Z,925.16
2016-10-20T03:43:15.989Z,925.1
2016-10-20T03:44:26.732Z,925.05
2016-10-20T03:45:37.443Z,925.03
2016-10-20T03:46:48.200Z,925.07
2016-10-20T03:47:58.927Z,925.08
2016-10-20T03:49:09.667Z,925.09
2016-10-20T03:50:20.385Z,925.12
2016-10-20T03:51:31.114Z,925.14
2016-10-20T03:52:41.851Z,925.08
2016-10-20T03:53:52.570Z,925.07
2016-10-20T03:55:03.312Z,925.1
2016-10-20T03:56:14.052Z,924.99
2016-10-20T03:57:24.809Z,924.93
2016-10-20T03:58:35.517Z,924.97
2016-10-20T03:59:46.274Z,924.96
2016-10-20T04:00:57.611Z,924.97
2016-10-20T04:02:08.878Z,924.93
2016-10-20T04:03:19.602Z,924.92
2016-10-20T04:04:30.831Z,924.97
2016-10-20T04:05:41.542Z,924.99
2016-10-20T04:06:52.289Z,924.98
2016-10-20T04:08:03.027Z,925.11
2016-10-20T04:09:14.282Z,925.09
2016-10-20T04:10:25.017Z,925.1
2016-10-20T04:11:35.739Z,925.08
2016-10-20T04:12:46.454Z,925.1
2016-10-20T04:13:57.175Z,924.99
2016-10-20T04:15:07.890Z,925.01
2016-10-20T04:16:18.612Z,925.04
2016-10-20T04:17:29.315Z,925.01
2016-10-20T04:18:40.048Z,924.99
2016-10-20T04:19:51.315Z,924.94
2016-10-20T04:21:02.121Z,924.99
2016-10-20T04:22:12.862Z,925.02
2016-10-20T04:23:23.614Z,924.98
2016-10-20T04:24:34.339Z,924.93
2016-10-20T04:25:45.055Z,925
2016-10-20T04:26:55.798Z,925.05
2016-10-20T04:28:07.033Z,924.94
2016-10-20T04:29:17.754Z,925.05
2016-10-20T04:30:28.475Z,925.08
2016-10-20T04:31:39.194Z,925.08
2016-10-20T04:32:49.910Z,925.07
2016-10-20T04:34:00.620Z,925.05
2016-10-20T04:35:11.325Z,925.12
2016-10-20T04:36:22.036Z,925.06
2016-10-20T04:37:32.735Z,924.98
2016-10-20T04:38:43.976Z,924.94
2016-10-20T04:39:54.682Z,924.88
2016-10-20T04:41:05.422Z,924.83
2016-10-20T04:42:16.170Z,924.79
2016-10-20T04:43:26.951Z,924.75
2016-10-20T04:44:37.684Z,924.75
2016-10-20T04:45:48.386Z,924.68
2016-10-20T04:46:59.105Z,924.67
2016-10-20T04:48:09.848Z,924.67
2016-10-20T04:49:20.567Z,924.69
2016-10-20T04:50:31.306Z,924.7
2016-10-20T04:51:42.052Z,924.67
2016-10-20T04:52:52.784Z,924.67
2016-10-20T04:54:03.479Z,924.63
2016-10-20T04:55:14.174Z,924.57
2016-10-20T04:56:24.897Z,924.57
2016-10-20T04:57:35.655Z,924.58
2016-10-20T04:58:46.372Z,924.53
2016-10-20T04:59:57.140Z,924.49
2016-10-20T05:01:07.846Z,924.55
2016-10-20T05:02:18.560Z,924.58
2016-10-20T05:03:29.307Z,924.61
2016-10-20T05:04:40.043Z,924.6
2016-10-20T05:05:50.782Z,924.59
2016-10-20T05:07:01.458Z,924.51
2016-10-20T05:08:12.682Z,924.61
2016-10-20T05:09:23.370Z,924.62
2016-10-20T05:10:34.067Z,924.67
2016-10-20T05:11:44.791Z,924.68
2016-10-20T05:12:55.487Z,924.71
2016-10-20T05:14:09.267Z,924.66
2016-10-20T05:15:20.484Z,924.64
2016-10-20T05:16:31.180Z,924.68
2016-10-20T05:17:41.864Z,924.65
2016-10-20T05:18:52.603Z,924.65
2016-10-20T05:20:03.330Z,924.74
2016-10-20T05:21:14.026Z,924.68
2016-10-20T05:22:24.763Z,924.72
2016-10-20T05:23:35.448Z,924.69
2016-10-20T05:24:46.156Z,924.66
2016-10-20T05:25:56.880Z,924.68
2016-10-20T05:27:07.615Z,924.68
2016-10-20T05:28:18.342Z,924.67
2016-10-20T05:29:29.057Z,924.65
2016-10-20T05:30:39.768Z,924.59
2016-10-20T05:31:50.464Z,924.59
2016-10-20T05:33:01.189Z,924.55
2016-10-20T05:34:11.916Z,924.58
2016-10-20T05:35:22.669Z,924.49
2016-10-20T05:36:33.372Z,924.5
2016-10-20T05:37:44.081Z,924.51
2016-10-20T05:38:54.813Z,924.58
2016-10-20T05:40:05.515Z,924.6
2016-10-20T05:41:16.226Z,924.65
2016-10-20T05:42:26.968Z,924.64
2016-10-20T05:43:37.718Z,924.68
2016-10-20T05:44:48.449Z,924.65
2016-10-20T05:45:59.145Z,924.66
2016-10-20T05:47:10.616Z,924.65
2016-10-20T05:48:21.299Z,924.65
2016-10-20T05:49:32.000Z,924.64
2016-10-20T05:50:42.717Z,924.58
2016-10-20T05:51:54.032Z,924.54
2016-10-20T05:53:04.750Z,924.53
2016-10-20T05:54:15.461Z,924.65
2016-10-20T05:55:26.158Z,924.67
2016-10-20T05:56:36.916Z,924.67
2016-10-20T05:57:47.628Z,924.61
2016-10-20T05:58:58.344Z,924.71
2016-10-20T06:00:09.058Z,924.74
2016-10-20T06:01:19.796Z,924.76
2016-10-20T06:02:30.513Z,924.76
2016-10-20T06:03:41.232Z,924.77
2016-10-20T06:04:51.969Z,924.81
2016-10-20T06:06:02.672Z,924.78
2016-10-20T06:07:13.382Z,924.79
2016-10-20T06:08:24.100Z,924.66
2016-10-20T06:09:34.832Z,924.78
2016-10-20T06:10:45.528Z,924.78
2016-10-20T06:11:56.255Z,924.76
2016-10-20T06:13:06.979Z,924.7
2016-10-20T06:14:17.673Z,924.64
2016-10-20T06:15:28.387Z,924.71
2016-10-20T06:16:39.088Z,924.71
2016-10-20T06:17:49.790Z,924.69
2016-10-20T06:19:00.483Z,924.69
2016-10-20T06:20:11.218Z,924.72
2016-10-20T06:21:22.218Z,924.67
2016-10-20T06:22:33.423Z,924.66
2016-10-20T06:23:44.116Z,924.63
2016-10-20T06:24:54.884Z,924.57
2016-10-20T06:26:05.631Z,924.53
2016-10-20T06:27:16.848Z,924.56
2016-10-20T06:28:27.559Z,924.45
2016-10-20T06:29:38.265Z,924.5
2016-10-20T06:30:48.958Z,924.48
2016-10-20T06:31:59.630Z,924.39
2016-10-20T06:33:10.331Z,924.46
2016-10-20T06:34:21.029Z,924.48
2016-10-20T06:35:31.777Z,924.48
2016-10-20T06:36:42.541Z,924.43
2016-10-20T06:37:53.768Z,924.46
2016-10-20T06:39:04.476Z,924.43
2016-10-20T06:40:15.326Z,924.44
2016-10-20T06:41:26.032Z,924.52
2016-10-20T06:42:36.723Z,924.48
2016-10-20T06:43:47.442Z,924.52
2016-10-20T06:44:58.159Z,924.54
2016-10-20T06:46:08.894Z,924.53
2016-10-20T06:47:19.603Z,924.58
2016-10-20T06:48:30.305Z,924.62
2016-10-20T06:49:41.038Z,924.73
2016-10-20T06:50:51.771Z,924.77
2016-10-20T06:52:02.495Z,924.83
2016-10-20T06:53:13.216Z,924.93
2016-10-20T06:54:23.921Z,925.09
2016-10-20T06:55:34.653Z,925.2
2016-10-20T06:56:45.347Z,925.29
2016-10-20T06:57:56.565Z,925.38
2016-10-20T06:59:07.274Z,925.45
2016-10-20T07:00:18.016Z,925.54
2016-10-20T07:01:28.722Z,925.61
2016-10-20T07:02:39.419Z,925.62
2016-10-20T07:03:50.671Z,925.68
2016-10-20T07:05:01.387Z,925.71
2016-10-20T07:06:12.091Z,925.7
2016-10-20T07:07:22.805Z,925.77
2016-10-20T07:08:33.523Z,925.9
2016-10-20T07:09:44.227Z,925.91
2016-10-20T07:10:55.001Z,925.89
2016-10-20T07:12:05.691Z,926.01
2016-10-20T07:13:16.391Z,926.04
2016-10-20T07:14:27.092Z,925.86
2016-10-20T07:15:37.817Z,926.08
2016-10-20T07:16:48.508Z,926.08
2016-10-20T07:17:59.245Z,926.05
2016-10-20T07:19:09.959Z,926.07
2016-10-20T07:20:20.676Z,926.12
2016-10-20T07:21:31.432Z,926.13
2016-10-20T07:22:42.193Z,926.07
2016-10-20T07:23:52.888Z,926.06
2016-10-20T07:25:03.604Z,926.18
2016-10-20T07:26:14.289Z,926.24
2016-10-20T07:27:25.022Z,926.29
2016-10-20T07:28:35.759Z,926.31
2016-10-20T07:29:46.466Z,926.36
2016-10-20T07:30:57.167Z,926.43
2016-10-20T07:32:07.893Z,926.44
2016-10-20T07:33:18.618Z,926.41
2016-10-20T07:34:30.308Z,926.44
2016-10-20T07:35:41.033Z,926.44
2016-10-20T07:36:51.752Z,926.49
2016-10-20T07:38:03.037Z,926.52
2016-10-20T07:39:13.751Z,926.53
2016-10-20T07:40:24.464Z,926.55
2016-10-20T07:41:35.189Z,926.55
2016-10-20T07:42:45.888Z,926.61
2016-10-20T07:43:56.594Z,926.58
2016-10-20T07:45:07.318Z,926.41
2016-10-20T07:46:18.044Z,926.53
2016-10-20T07:47:28.745Z,926.5
2016-10-20T07:48:39.529Z,926.46
2016-10-20T07:49:50.252Z,926.4
2016-10-20T07:51:00.964Z,926.38
2016-10-20T07:52:11.655Z,926.34
2016-10-20T07:53:22.418Z,926.28
2016-10-20T07:54:33.143Z,926.14
2016-10-20T07:55:43.819Z,926.16
2016-10-20T07:56:54.523Z,926.13
2016-10-20T07:58:05.266Z,926.09
2016-10-20T07:59:15.982Z,925.99
2016-10-20T08:00:26.724Z,925.94
2016-10-20T08:01:37.448Z,925.79
2016-10-20T08:02:48.150Z,925.68
2016-10-20T08:03:58.838Z,925.66
2016-10-20T08:05:09.740Z,925.51
2016-10-20T08:06:20.444Z,925.46
2016-10-20T08:07:31.185Z,925.59
2016-10-20T08:08:41.900Z,925.57
2016-10-20T08:09:52.669Z,925.6
2016-10-20T08:11:03.380Z,925.61
2016-10-20T08:12:14.135Z,925.65
2016-10-20T08:13:24.844Z,925.69
2016-10-20T08:14:35.550Z,925.66
2016-10-20T08:15:46.281Z,925.69
2016-10-20T08:16:56.983Z,925.71
2016-10-20T08:18:08.220Z,925.76
2016-10-20T08:19:18.914Z,925.84
2016-10-20T08:20:29.660Z,925.89
2016-10-20T08:21:40.397Z,925.95
2016-10-20T08:22:51.149Z,926.01
2016-10-20T08:24:01.852Z,926.06
2016-10-20T08:25:12.537Z,926.15
2016-10-20T08:26:23.292Z,926.21
2016-10-20T08:27:34.009Z,926.34
2016-10-20T08:28:44.730Z,926.42
2016-10-20T08:29:55.453Z,926.51
2016-10-20T08:31:06.147Z,926.73
2016-10-20T08:32:16.895Z,926.92
2016-10-20T08:33:27.604Z,927.1
2016-10-20T08:34:38.308Z,927.22
2016-10-20T08:35:49.000Z,927.29
2016-10-20T08:36:59.711Z,927.28
2016-10-20T08:38:10.394Z,927.45
2016-10-20T08:39:21.099Z,927.61
2016-10-20T08:40:31.822Z,927.37
2016-10-20T08:41:42.579Z,927.28
2016-10-20T08:42:53.264Z,927.29
2016-10-20T08:44:03.957Z,927.13
2016-10-20T08:45:14.660Z,927.03
2016-10-20T08:46:25.377Z,927.06
2016-10-20T08:47:36.088Z,927.12
2016-10-20T08:48:46.805Z,927.21
2016-10-20T08:49:57.553Z,927.3
2016-10-20T08:51:08.248Z,927.32
2016-10-20T08:52:19.453Z,927.3
2016-10-20T08:53:30.175Z,927.21
2016-10-20T08:54:40.862Z,927.06
2016-10-20T08:55:51.609Z,927.06
2016-10-20T08:57:02.294Z,927.07
2016-10-20T08:58:13.034Z,927
2016-10-20T08:59:23.785Z,926.9
2016-10-20T09:00:34.524Z,926.81
2016-10-20T09:01:45.241Z,926.78
2016-10-20T09:02:55.999Z,926.66
2016-10-20T09:04:06.716Z,926.6
2016-10-20T09:05:17.463Z,926.46
2016-10-20T09:06:28.168Z,926.37
2016-10-20T09:07:38.890Z,926.32
2016-10-20T09:08:49.580Z,926.19
2016-10-20T09:10:00.308Z,926.09
2016-10-20T09:11:11.497Z,925.94
2016-10-20T09:12:22.229Z,925.9
2016-10-20T09:13:32.934Z,925.81
2016-10-20T09:14:43.649Z,925.73
2016-10-20T09:15:54.370Z,925.65
2016-10-20T09:17:05.070Z,925.66
2016-10-20T09:18:15.811Z,925.51
2016-10-20T09:19:26.531Z,925.44
2016-10-20T09:20:37.253Z,925.23
2016-10-20T09:21:47.960Z,925.27
2016-10-20T09:22:59.225Z,925.32
2016-10-20T09:24:09.927Z,925.3
2016-10-20T09:25:20.648Z,925.21
2016-10-20T09:26:31.363Z,925.34
2016-10-20T09:27:42.076Z,925.31
2016-10-20T09:28:52.803Z,925.34
2016-10-20T09:30:03.496Z,925.29
2016-10-20T09:31:14.722Z,925.29
2016-10-20T09:32:25.451Z,925.31
2016-10-20T09:33:36.173Z,925.35
2016-10-20T09:34:46.882Z,925.33
2016-10-20T09:35:57.639Z,925.37
2016-10-20T09:37:08.355Z,925.31
2016-10-20T09:38:19.064Z,925.33
2016-10-20T09:39:29.761Z,925.3
2016-10-20T09:40:40.473Z,925.32
2016-10-20T09:41:51.192Z,925.27
2016-10-20T09:43:01.975Z,925.23
2016-10-20T09:44:13.201Z,925.18
2016-10-20T09:45:23.911Z,925.24
2016-10-20T09:46:34.622Z,925.22
2016-10-20T09:47:45.342Z,925.25
2016-10-20T09:48:56.054Z,925.24
2016-10-20T09:50:06.735Z,925.27
2016-10-20T09:51:17.459Z,925.28
2016-10-20T09:52:28.169Z,925.27
2016-10-20T09:53:38.990Z,925.32
2016-10-20T09:54:49.705Z,925.29
2016-10-20T09:56:00.397Z,925.28
2016-10-20T09:57:11.600Z,925.24
2016-10-20T09:58:22.312Z,925.22
2016-10-20T09:59:33.024Z,925.25
2016-10-20T10:00:43.735Z,925.22
2016-10-20T10:01:54.428Z,925.28
2016-10-20T10:03:05.153Z,925.24
2016-10-20T10:04:15.867Z,925.2
2016-10-20T10:05:26.578Z,925.16
2016-10-20T10:06:37.283Z,925.08
2016-10-20T10:07:48.000Z,925.12
2016-10-20T10:08:58.699Z,925.12
2016-10-20T10:10:09.444Z,925.04
2016-10-20T10:11:20.155Z,925.03
2016-10-20T10:12:30.839Z,925.03
2016-10-20T10:13:41.529Z,925.01
2016-10-20T10:14:52.242Z,925.05
2016-10-20T10:16:02.934Z,925.05
2016-10-20T10:17:13.650Z,925.04
2016-10-20T10:18:24.367Z,925.04
2016-10-20T10:19:35.096Z,925.07
2016-10-20T10:20:45.871Z,925.04
2016-10-20T10:21:56.572Z,925.08
2016-10-20T10:23:07.849Z,925.07
2016-10-20T10:24:18.543Z,925.07
2016-10-20T10:25:29.256Z,925.03
2016-10-20T10:26:39.954Z,924.97
2016-10-20T10:27:50.648Z,924.97
2016-10-20T10:29:01.370Z,924.98
2016-10-20T10:30:12.069Z,925
2016-10-20T10:31:22.766Z,924.96
2016-10-20T10:32:33.487Z,924.89
2016-10-20T10:33:44.194Z,924.87
2016-10-20T10:34:54.901Z,924.81
2016-10-20T10:36:05.604Z,924.74
2016-10-20T10:37:16.337Z,924.77
2016-10-20T10:38:27.050Z,924.73
2016-10-20T10:39:37.759Z,924.69
2016-10-20T10:40:48.469Z,924.73
2016-10-20T10:41:59.185Z,924.71
2016-10-20T10:43:09.934Z,924.64
2016-10-20T10:44:20.665Z,924.64
2016-10-20T10:45:31.380Z,924.67
2016-10-20T10:46:42.068Z,924.71
2016-10-20T10:47:52.782Z,924.73
2016-10-20T10:49:03.505Z,924.74
2016-10-20T10:50:14.243Z,924.81
2016-10-20T10:51:24.934Z,924.8
2016-10-20T10:52:35.697Z,924.8
2016-10-20T10:53:46.463Z,924.77
2016-10-20T10:54:57.693Z,924.83
2016-10-20T10:56:08.408Z,924.8
2016-10-20T10:57:19.131Z,924.81
2016-10-20T10:58:29.852Z,924.84
2016-10-20T10:59:40.556Z,924.9
2016-10-20T11:00:51.281Z,924.91
2016-10-20T11:02:02.065Z,924.96
2016-10-20T11:03:12.880Z,924.94
2016-10-20T11:04:23.703Z,924.95
2016-10-20T11:05:34.447Z,924.92
2016-10-20T11:06:45.671Z,924.89
2016-10-20T11:07:56.393Z,924.91
2016-10-20T11:09:07.158Z,924.88
2016-10-20T11:10:18.431Z,924.91
2016-10-20T11:11:29.344Z,924.93
2016-10-20T11:12:40.082Z,924.95
2016-10-20T11:13:50.832Z,924.96
2016-10-20T11:15:01.543Z,924.96
2016-10-20T11:16:12.270Z,924.96
2016-10-20T11:17:22.974Z,925
2016-10-20T11:18:33.750Z,924.97
2016-10-20T11:19:44.488Z,925.01
2016-10-20T11:20:55.188Z,924.94
2016-10-20T11:22:05.941Z,924.96
2016-10-20T11:23:16.650Z,924.97
2016-10-20T11:24:27.381Z,924.98
2016-10-20T11:25:38.225Z,925.01
2016-10-20T11:26:48.955Z,924.96
2016-10-20T11:27:59.667Z,924.94
2016-10-20T11:29:10.389Z,925.02
2016-10-20T11:30:21.099Z,924.99
2016-10-20T11:31:31.828Z,925.02
2016-10-20T11:32:42.570Z,925.12
2016-10-20T11:33:53.304Z,925.04
2016-10-20T11:35:04.029Z,925.06
2016-10-20T11:36:14.768Z,925.06
2016-10-20T11:37:25.481Z,925.06
2016-10-20T11:38:36.225Z,925.06
2016-10-20T11:39:47.001Z,925.07
2016-10-20T11:40:57.733Z,925.06
2016-10-20T11:42:08.469Z,925.05
2016-10-20T11:43:19.206Z,925.06
2016-10-20T11:44:29.932Z,925.06
2016-10-20T11:45:40.649Z,925.11
2016-10-20T11:46:51.351Z,925.1
2016-10-20T11:48:02.074Z,925.08
2016-10-20T11:49:12.786Z,925.08
2016-10-20T11:50:23.531Z,925.09
2016-10-20T11:51:34.295Z,925.09
2016-10-20T11:52:45.251Z,925.06
2016-10-20T11:53:55.955Z,925.05
2016-10-20T11:55:06.658Z,925.02
2016-10-20T11:56:17.360Z,925.08
2016-10-20T11:57:28.104Z,925.06
2016-10-20T11:58:38.832Z,925.09
2016-10-20T11:59:49.596Z,925.07
2016-10-20T12:01:00.487Z,925.11
2016-10-20T12:02:11.255Z,925.11
2016-10-20T12:03:21.997Z,925.11
2016-10-20T12:04:32.740Z,925.09
2016-10-20T12:05:43.507Z,925.16
2016-10-20T12:06:54.727Z,925.1
2016-10-20T12:08:05.475Z,925.12
2016-10-20T12:09:16.202Z,925.08
2016-10-20T12:10:26.931Z,925.08
2016-10-20T12:11:37.632Z,925.09
2016-10-20T12:12:48.867Z,925.04
2016-10-20T12:13:59.591Z,925.04
2016-10-20T12:15:10.306Z,925.02
2016-10-20T12:16:21.095Z,925.02
2016-10-20T12:17:32.198Z,925.04
2016-10-20T12:18:43.422Z,925.01
2016-10-20T12:19:54.143Z,925.04
2016-10-20T12:21:04.906Z,925.01
2016-10-20T12:22:15.630Z,925
2016-10-20T12:23:26.384Z,925.06
2016-10-20T12:24:37.095Z,925.08
2016-10-20T12:25:47.813Z,925.07
2016-10-20T12:26:58.586Z,925.13
2016-10-20T12:28:09.822Z,925.14
2016-10-20T12:29:20.555Z,925.19
2016-10-20T12:30:31.319Z,925.14
2016-10-20T12:31:42.075Z,925.22
2016-10-20T12:32:53.318Z,925.18
2016-10-20T12:34:04.065Z,925.19
2016-10-20T12:35:14.776Z,925.15
2016-10-20T12:36:25.543Z,925.1
2016-10-20T12:37:36.280Z,925.13
2016-10-20T12:38:46.984Z,925.08
2016-10-20T12:39:57.710Z,925.03
2016-10-20T12:41:08.923Z,925.1
2016-10-20T12:42:20.147Z,925.05
2016-10-20T12:43:30.870Z,925.08
2016-10-20T12:44:41.566Z,924.99
2016-10-20T12:45:52.274Z,925.1
2016-10-20T12:47:03.517Z,925.06
2016-10-20T12:48:14.260Z,925.05
2016-10-20T12:49:24.978Z,925.08
2016-10-20T12:50:35.776Z,925.02
2016-10-20T12:51:46.529Z,924.98
2016-10-20T12:52:57.272Z,924.99
2016-10-20T12:54:08.034Z,925.02
2016-10-20T12:55:18.752Z,925.02
2016-10-20T12:56:29.976Z,925.02
2016-10-20T12:57:40.686Z,925
2016-10-20T12:58:51.398Z,924.96
2016-10-20T13:00:02.133Z,925
2016-10-20T13:01:13.429Z,924.91
2016-10-20T13:02:24.159Z,924.94
2016-10-20T13:03:34.867Z,924.89
2016-10-20T13:04:45.604Z,924.88
2016-10-20T13:05:57.188Z,924.97
2016-10-20T13:07:07.941Z,924.98
2016-10-20T13:08:19.149Z,925
2016-10-20T13:09:30.444Z,924.94
2016-10-20T13:10:41.143Z,924.9
2016-10-20T13:11:51.851Z,924.94
2016-10-20T13:13:02.589Z,924.88
2016-10-20T13:14:13.299Z,924.94
2016-10-20T13:15:24.018Z,924.91
2016-10-20T13:16:35.261Z,924.85
2016-10-20T13:17:45.984Z,924.9
2016-10-20T13:18:56.726Z,924.89
2016-10-20T13:20:07.461Z,924.86
2016-10-20T13:21:18.198Z,924.86
2016-10-20T13:22:28.938Z,924.83
2016-10-20T13:23:39.668Z,924.9
2016-10-20T13:24:50.446Z,924.89
2016-10-20T13:26:01.239Z,924.84
2016-10-20T13:27:11.981Z,924.73
2016-10-20T13:28:22.702Z,924.81
2016-10-20T13:29:33.463Z,924.86
2016-10-20T13:30:44.182Z,924.82
2016-10-20T13:31:54.916Z,924.8
2016-10-20T13:33:05.628Z,924.76
2016-10-20T13:34:16.867Z,924.77
2016-10-20T13:35:27.580Z,924.82
2016-10-20T13:36:38.361Z,924.82
2016-10-20T13:37:49.097Z,924.82
2016-10-20T13:38:59.852Z,924.83
2016-10-20T13:40:10.601Z,924.88
2016-10-20T13:41:21.361Z,924.84
2016-10-20T13:42:32.395Z,924.82
2016-10-20T13:43:43.126Z,924.84
2016-10-20T13:44:53.904Z,924.85
2016-10-20T13:46:04.641Z,924.85
2016-10-20T13:47:15.376Z,924.84
2016-10-20T13:48:27.143Z,924.91
2016-10-20T13:49:38.386Z,924.93
2016-10-20T13:50:49.167Z,924.94
2016-10-20T13:51:59.884Z,924.92
2016-10-20T13:53:10.610Z,924.91
2016-10-20T13:54:21.308Z,924.91
2016-10-20T13:55:32.051Z,924.87
2016-10-20T13:56:42.776Z,924.89
2016-10-20T13:57:53.482Z,924.83
2016-10-20T13:59:04.223Z,924.81
2016-10-20T14:00:15.465Z,924.84
2016-10-20T14:01:26.186Z,924.81
2016-10-20T14:02:36.902Z,924.82
2016-10-20T14:03:47.624Z,924.78
2016-10-20T14:04:59.083Z,924.77
2016-10-20T14:06:09.807Z,924.78
2016-10-20T14:07:20.580Z,924.72
2016-10-20T14:08:32.008Z,924.74
2016-10-20T14:09:42.740Z,924.71
2016-10-20T14:10:54.170Z,924.74
2016-10-20T14:12:04.887Z,924.77
2016-10-20T14:13:15.635Z,924.77
2016-10-20T14:14:26.930Z,924.82
2016-10-20T14:15:37.718Z,924.77
2016-10-20T14:16:48.481Z,924.76
2016-10-20T14:17:59.252Z,924.78
2016-10-20T14:19:10.668Z,924.76
2016-10-20T14:20:21.562Z,924.74
2016-10-20T14:21:32.557Z,924.7
2016-10-20T14:22:44.301Z,924.71
2016-10-20T14:23:55.225Z,924.73
2016-10-20T14:25:05.935Z,924.73
2016-10-20T14:26:16.657Z,924.73
2016-10-20T14:27:27.621Z,924.73
2016-10-20T14:28:38.356Z,924.73
2016-10-20T14:29:49.069Z,924.69
2016-10-20T14:30:59.826Z,924.7
2016-10-20T14:32:11.060Z,924.64
2016-10-20T14:33:21.806Z,924.66
2016-10-20T14:34:32.556Z,924.63
2016-10-20T14:35:43.283Z,924.55
2016-10-20T14:36:54.006Z,924.58
2016-10-20T14:38:04.755Z,924.59
2016-10-20T14:39:16.206Z,924.55
2016-10-20T14:40:26.993Z,924.53
2016-10-20T14:41:37.712Z,924.54
2016-10-20T14:42:48.445Z,924.51
2016-10-20T14:43:59.175Z,924.55
2016-10-20T14:45:09.937Z,924.53
2016-10-20T14:46:20.681Z,924.54